Springfield, Pennsylvania
Current Conditions -  °F | °C
As of 8:54 AM on Thursday 29 Jan 2015 (Local Time) from KPHL Reporting Station
Broken Clouds Broken Clouds  
Wind Chill: 19°   Ceiling: 28000
Heat Index: 28°   Visibility: 10mi
Dew Point:   Wind: 9mph
Humidity: 43%   Direction: 80°E
Pressure: 30.33"   Gusts: NA
Location:  39.93°N, 75.32°W
Report Text: KPHL 291354Z 08008KT 10SM BKN280 M02/M13 A3033 RMK AO2 SLP269 T10221133 $
Loading
Personal Weather Stations






























Interactive Weather Map New forecast layout! Learn more

10-Day Weather Forecast

Advertisements
Track Severe Weather on mobile